PWSweather.com
Personal Weather Stations
Station Observations
KFLPOINC2
PoincianaKissimmee, Poinciana, FL 34758

PoincianaKissimmeePoinciana, FL 34758

Lat: 28.161417, Lon: -81.477557

Elevation: 62

Station Type: Ambient Weather WS 2080

High Low Average
Temperature 89.6°F32.0°C 67.1°F19.5°C 77.8°F25.4°C
Dew Point 72.6°F22.6°C 64.7°F18.2°C 67.9°F19.9°C
Winds 13.0 mph 20.9 kmh Calm Calm 4.0 mph WSW6.4 kmh WSW
Wind Gusts 21.3 mph34.3 kmh -- 7.0 mph11.3 kmh
Humidity 93% 47% 73%
Pressure 30.20 in1022.7 mb 30.06 in1017.9 mb -
Precipitation 0.06 in1.5 mm - -
Hour Temp Dew Point Humidity Winds Wind Gusts Pressure Precip Precip Rate Daily Precip Total
12:00 AM 71.2°F21.8°C 67.5°F19.7°C 88% 0.7 mph N1.1 kmh N 3.1 mph5.0 kmh 30.19 in1022.4 mb 0.00 in0.0 mm 0.00 in/hr0.0 mm/hr 0.01 in0.3 mm
12:05 AM 71.2°F21.8°C 67.5°F19.7°C 88% 0.7 mph NNE1.1 kmh NNE 3.1 mph5.0 kmh 30.19 in1022.4 mb 0.00 in0.0 mm 0.00 in/hr0.0 mm/hr 0.00 in0.0 mm
12:10 AM 71.1°F21.7°C 67.4°F19.7°C 88% Calm Calm 1.6 mph2.6 kmh 30.19 in1022.4 mb 0.00 in0.0 mm 0.00 in/hr0.0 mm/hr 0.00 in0.0 mm
12:15 AM 71.1°F21.7°C 67.4°F19.7°C 88% Calm Calm 1.6 mph2.6 kmh 30.19 in1022.4 mb 0.00 in0.0 mm 0.00 in/hr0.0 mm/hr 0.00 in0.0 mm
12:20 AM 71.1°F21.7°C 67.4°F19.7°C 88% 0.7 mph W1.1 kmh W 2.2 mph3.5 kmh 30.19 in1022.4 mb 0.00 in0.0 mm 0.00 in/hr0.0 mm/hr 0.00 in0.0 mm
12:25 AM 70.9°F21.6°C 67.2°F19.6°C 88% 0.7 mph W1.1 kmh W 2.2 mph3.5 kmh 30.19 in1022.4 mb 0.00 in0.0 mm 0.00 in/hr0.0 mm/hr 0.00 in0.0 mm
12:30 AM 70.9°F21.6°C 67.2°F19.6°C 88% Calm Calm 1.6 mph2.6 kmh 30.19 in1022.4 mb 0.00 in0.0 mm 0.00 in/hr0.0 mm/hr 0.00 in0.0 mm
12:35 AM 70.9°F21.6°C 67.5°F19.7°C 89% Calm Calm 1.6 mph2.6 kmh 30.19 in1022.4 mb 0.00 in0.0 mm 0.00 in/hr0.0 mm/hr 0.00 in0.0 mm
12:40 AM 70.7°F21.5°C 67.3°F19.6°C 89% 1.6 mph SW2.6 kmh SW 2.2 mph3.5 kmh 30.19 in1022.4 mb 0.00 in0.0 mm 0.00 in/hr0.0 mm/hr 0.00 in0.0 mm
12:45 AM 70.7°F21.5°C 67.3°F19.6°C 89% 0.7 mph WSW1.1 kmh WSW 3.1 mph5.0 kmh 30.18 in1022.0 mb 0.00 in0.0 mm 0.00 in/hr0.0 mm/hr 0.00 in0.0 mm
12:50 AM 70.7°F21.5°C 67.3°F19.6°C 89% 1.6 mph NW2.6 kmh NW 3.1 mph5.0 kmh 30.18 in1022.0 mb 0.00 in0.0 mm 0.00 in/hr0.0 mm/hr 0.00 in0.0 mm
12:55 AM 70.7°F21.5°C 67.3°F19.6°C 89% 2.2 mph NNW3.5 kmh NNW 3.1 mph5.0 kmh 30.18 in1022.0 mb 0.00 in0.0 mm 0.00 in/hr0.0 mm/hr 0.00 in0.0 mm
01:00 AM 70.7°F21.5°C 67.3°F19.6°C 89% Calm Calm 3.1 mph5.0 kmh 30.18 in1022.0 mb 0.00 in0.0 mm 0.00 in/hr0.0 mm/hr 0.00 in0.0 mm
01:05 AM 70.5°F21.4°C 67.2°F19.6°C 89% Calm Calm 2.2 mph3.5 kmh 30.19 in1022.4 mb 0.00 in0.0 mm 0.00 in/hr0.0 mm/hr 0.00 in0.0 mm
01:10 AM 70.5°F21.4°C 67.2°F19.6°C 89% 0.7 mph N1.1 kmh N 1.6 mph2.6 kmh 30.19 in1022.4 mb 0.00 in0.0 mm 0.00 in/hr0.0 mm/hr 0.00 in0.0 mm
01:15 AM 70.3°F21.3°C 67.0°F19.4°C 89% 0.7 mph NE1.1 kmh NE 1.6 mph2.6 kmh 30.18 in1022.0 mb 0.00 in0.0 mm 0.00 in/hr0.0 mm/hr 0.00 in0.0 mm
01:20 AM 70.2°F21.2°C 66.8°F19.3°C 89% 0.7 mph E1.1 kmh E 2.2 mph3.5 kmh 30.18 in1022.0 mb 0.00 in0.0 mm 0.00 in/hr0.0 mm/hr 0.00 in0.0 mm
01:25 AM 70.2°F21.2°C 66.8°F19.3°C 89% Calm Calm 2.2 mph3.5 kmh 30.18 in1022.0 mb 0.00 in0.0 mm 0.00 in/hr0.0 mm/hr 0.00 in0.0 mm
01:30 AM 70.2°F21.2°C 66.8°F19.3°C 89% Calm Calm 2.2 mph3.5 kmh 30.17 in1021.7 mb 0.00 in0.0 mm 0.00 in/hr0.0 mm/hr 0.00 in0.0 mm
01:35 AM 70.2°F21.2°C 66.8°F19.3°C 89% Calm Calm 1.6 mph2.6 kmh 30.17 in1021.7 mb 0.00 in0.0 mm 0.00 in/hr0.0 mm/hr 0.00 in0.0 mm
01:40 AM 70.0°F21.1°C 66.6°F19.2°C 89% Calm Calm 0.7 mph1.1 kmh 30.17 in1021.7 mb 0.00 in0.0 mm 0.00 in/hr0.0 mm/hr 0.00 in0.0 mm
01:45 AM 70.0°F21.1°C 66.6°F19.2°C 89% Calm Calm 0.7 mph1.1 kmh 30.17 in1021.7 mb 0.00 in0.0 mm 0.00 in/hr0.0 mm/hr 0.00 in0.0 mm
01:50 AM 70.0°F21.1°C 66.6°F19.2°C 89% Calm Calm 0.7 mph1.1 kmh 30.18 in1022.0 mb 0.00 in0.0 mm 0.00 in/hr0.0 mm/hr 0.00 in0.0 mm
01:55 AM 69.8°F21.0°C 66.4°F19.1°C 89% Calm Calm 0.7 mph1.1 kmh 30.17 in1021.7 mb 0.00 in0.0 mm 0.00 in/hr0.0 mm/hr 0.00 in0.0 mm
02:00 AM 69.8°F21.0°C 66.4°F19.1°C 89% Calm Calm -- 30.17 in1021.7 mb 0.00 in0.0 mm 0.00 in/hr0.0 mm/hr 0.00 in0.0 mm
02:05 AM 69.8°F21.0°C 66.4°F19.1°C 89% Calm Calm -- 30.17 in1021.7 mb 0.00 in0.0 mm 0.00 in/hr0.0 mm/hr 0.00 in0.0 mm
02:10 AM 69.6°F20.9°C 66.6°F19.2°C 90% Calm Calm -- 30.17 in1021.7 mb 0.00 in0.0 mm 0.00 in/hr0.0 mm/hr 0.00 in0.0 mm
02:15 AM 69.8°F21.0°C 66.4°F19.1°C 89% Calm Calm 0.7 mph1.1 kmh 30.17 in1021.7 mb 0.00 in0.0 mm 0.00 in/hr0.0 mm/hr 0.00 in0.0 mm
02:20 AM 69.6°F20.9°C 66.6°F19.2°C 90% 0.7 mph N1.1 kmh N 1.6 mph2.6 kmh 30.17 in1021.7 mb 0.00 in0.0 mm 0.00 in/hr0.0 mm/hr 0.00 in0.0 mm
02:25 AM 69.6°F20.9°C 66.6°F19.2°C 90% Calm Calm 1.6 mph2.6 kmh 30.17 in1021.7 mb 0.00 in0.0 mm 0.00 in/hr0.0 mm/hr 0.00 in0.0 mm
02:30 AM 69.6°F20.9°C 66.9°F19.4°C 91% Calm Calm 1.6 mph2.6 kmh 30.17 in1021.7 mb 0.00 in0.0 mm 0.00 in/hr0.0 mm/hr 0.00 in0.0 mm
02:35 AM 69.4°F20.8°C 66.7°F19.3°C 91% Calm Calm 1.6 mph2.6 kmh 30.17 in1021.7 mb 0.00 in0.0 mm 0.00 in/hr0.0 mm/hr 0.00 in0.0 mm
02:40 AM 69.4°F20.8°C 66.7°F19.3°C 91% Calm Calm 1.6 mph2.6 kmh 30.17 in1021.7 mb 0.00 in0.0 mm 0.00 in/hr0.0 mm/hr 0.00 in0.0 mm
02:45 AM 69.3°F20.7°C 66.6°F19.2°C 91% Calm Calm 0.7 mph1.1 kmh 30.16 in1021.3 mb 0.00 in0.0 mm 0.00 in/hr0.0 mm/hr 0.00 in0.0 mm
02:50 AM 69.3°F20.7°C 66.6°F19.2°C 91% Calm Calm 0.7 mph1.1 kmh 30.16 in1021.3 mb 0.00 in0.0 mm 0.00 in/hr0.0 mm/hr 0.00 in0.0 mm
02:55 AM 69.4°F20.8°C 66.7°F19.3°C 91% Calm Calm 0.7 mph1.1 kmh 30.16 in1021.3 mb 0.00 in0.0 mm 0.00 in/hr0.0 mm/hr 0.00 in0.0 mm
03:00 AM 69.4°F20.8°C 66.7°F19.3°C 91% Calm Calm 1.6 mph2.6 kmh 30.16 in1021.3 mb 0.00 in0.0 mm 0.00 in/hr0.0 mm/hr 0.00 in0.0 mm
03:05 AM 69.4°F20.8°C 66.7°F19.3°C 91% Calm Calm 1.6 mph2.6 kmh 30.16 in1021.3 mb 0.00 in0.0 mm 0.00 in/hr0.0 mm/hr 0.00 in0.0 mm
03:10 AM 69.3°F20.7°C 66.6°F19.2°C 91% Calm Calm -- 30.16 in1021.3 mb 0.00 in0.0 mm 0.00 in/hr0.0 mm/hr 0.00 in0.0 mm
03:15 AM 69.3°F20.7°C 66.6°F19.2°C 91% Calm Calm 0.7 mph1.1 kmh 30.16 in1021.3 mb 0.00 in0.0 mm 0.00 in/hr0.0 mm/hr 0.00 in0.0 mm
03:20 AM 69.3°F20.7°C 66.6°F19.2°C 91% Calm Calm 0.7 mph1.1 kmh 30.16 in1021.3 mb 0.00 in0.0 mm 0.00 in/hr0.0 mm/hr 0.00 in0.0 mm
03:25 AM 69.3°F20.7°C 66.6°F19.2°C 91% Calm Calm 0.7 mph1.1 kmh 30.16 in1021.3 mb 0.00 in0.0 mm 0.00 in/hr0.0 mm/hr 0.00 in0.0 mm
03:30 AM 69.1°F20.6°C 66.4°F19.1°C 91% Calm Calm 1.6 mph2.6 kmh 30.16 in1021.3 mb 0.00 in0.0 mm 0.00 in/hr0.0 mm/hr 0.00 in0.0 mm
03:35 AM 69.1°F20.6°C 66.4°F19.1°C 91% Calm Calm 1.6 mph2.6 kmh 30.16 in1021.3 mb 0.00 in0.0 mm 0.00 in/hr0.0 mm/hr 0.00 in0.0 mm
03:40 AM 68.9°F20.5°C 66.2°F19.0°C 91% Calm Calm 0.7 mph1.1 kmh 30.16 in1021.3 mb 0.00 in0.0 mm 0.00 in/hr0.0 mm/hr 0.00 in0.0 mm
03:45 AM 68.9°F20.5°C 66.2°F19.0°C 91% Calm Calm 0.7 mph1.1 kmh 30.17 in1021.7 mb 0.00 in0.0 mm 0.00 in/hr0.0 mm/hr 0.00 in0.0 mm
03:50 AM 68.7°F20.4°C 66.0°F18.9°C 91% Calm Calm 1.6 mph2.6 kmh 30.16 in1021.3 mb 0.00 in0.0 mm 0.00 in/hr0.0 mm/hr 0.00 in0.0 mm
03:55 AM 68.7°F20.4°C 66.0°F18.9°C 91% Calm Calm 1.6 mph2.6 kmh 30.16 in1021.3 mb 0.00 in0.0 mm 0.00 in/hr0.0 mm/hr 0.00 in0.0 mm
04:00 AM 68.7°F20.4°C 66.0°F18.9°C 91% Calm Calm 1.6 mph2.6 kmh 30.16 in1021.3 mb 0.00 in0.0 mm 0.00 in/hr0.0 mm/hr 0.00 in0.0 mm
04:05 AM 68.5°F20.3°C 65.8°F18.8°C 91% Calm Calm 0.7 mph1.1 kmh 30.16 in1021.3 mb 0.00 in0.0 mm 0.00 in/hr0.0 mm/hr 0.00 in0.0 mm
04:10 AM 68.5°F20.3°C 65.8°F18.8°C 91% Calm Calm 0.7 mph1.1 kmh 30.16 in1021.3 mb 0.00 in0.0 mm 0.00 in/hr0.0 mm/hr 0.00 in0.0 mm
04:15 AM 68.5°F20.3°C 65.8°F18.8°C 91% Calm Calm 0.7 mph1.1 kmh 30.16 in1021.3 mb 0.00 in0.0 mm 0.00 in/hr0.0 mm/hr 0.00 in0.0 mm
04:20 AM 68.4°F20.2°C 65.7°F18.7°C 91% Calm Calm 0.7 mph1.1 kmh 30.16 in1021.3 mb 0.00 in0.0 mm 0.00 in/hr0.0 mm/hr 0.00 in0.0 mm
04:25 AM 68.4°F20.2°C 65.7°F18.7°C 91% Calm Calm 1.6 mph2.6 kmh 30.16 in1021.3 mb 0.00 in0.0 mm 0.00 in/hr0.0 mm/hr 0.00 in0.0 mm
04:30 AM 68.4°F20.2°C 65.7°F18.7°C 91% 0.7 mph W1.1 kmh W 1.6 mph2.6 kmh 30.16 in1021.3 mb 0.00 in0.0 mm 0.00 in/hr0.0 mm/hr 0.00 in0.0 mm
04:35 AM 68.2°F20.1°C 65.5°F18.6°C 91% Calm Calm 1.6 mph2.6 kmh 30.16 in1021.3 mb 0.00 in0.0 mm 0.00 in/hr0.0 mm/hr 0.00 in0.0 mm
04:40 AM 68.2°F20.1°C 65.5°F18.6°C 91% Calm Calm 1.6 mph2.6 kmh 30.16 in1021.3 mb 0.00 in0.0 mm 0.00 in/hr0.0 mm/hr 0.00 in0.0 mm
04:45 AM 68.2°F20.1°C 65.5°F18.6°C 91% 0.7 mph N1.1 kmh N 2.2 mph3.5 kmh 30.16 in1021.3 mb 0.00 in0.0 mm 0.00 in/hr0.0 mm/hr 0.00 in0.0 mm
04:50 AM 68.4°F20.2°C 65.7°F18.7°C 91% 0.7 mph N1.1 kmh N 2.2 mph3.5 kmh 30.16 in1021.3 mb 0.00 in0.0 mm 0.00 in/hr0.0 mm/hr 0.00 in0.0 mm
04:55 AM 68.4°F20.2°C 65.7°F18.7°C 91% 0.7 mph N1.1 kmh N 2.2 mph3.5 kmh 30.17 in1021.7 mb 0.00 in0.0 mm 0.00 in/hr0.0 mm/hr 0.00 in0.0 mm
05:00 AM 68.4°F20.2°C 65.7°F18.7°C 91% Calm Calm 2.2 mph3.5 kmh 30.16 in1021.3 mb 0.00 in0.0 mm 0.00 in/hr0.0 mm/hr 0.00 in0.0 mm
05:05 AM 68.4°F20.2°C 65.7°F18.7°C 91% Calm Calm 2.2 mph3.5 kmh 30.16 in1021.3 mb 0.00 in0.0 mm 0.00 in/hr0.0 mm/hr 0.00 in0.0 mm
05:10 AM 68.4°F20.2°C 65.7°F18.7°C 91% Calm Calm 0.7 mph1.1 kmh 30.17 in1021.7 mb 0.00 in0.0 mm 0.00 in/hr0.0 mm/hr 0.00 in0.0 mm
05:15 AM 68.4°F20.2°C 65.7°F18.7°C 91% Calm Calm 0.7 mph1.1 kmh 30.17 in1021.7 mb 0.00 in0.0 mm 0.00 in/hr0.0 mm/hr 0.00 in0.0 mm
05:20 AM 68.2°F20.1°C 65.5°F18.6°C 91% Calm Calm -- 30.16 in1021.3 mb 0.00 in0.0 mm 0.00 in/hr0.0 mm/hr 0.00 in0.0 mm
05:25 AM 68.2°F20.1°C 65.5°F18.6°C 91% Calm Calm -- 30.16 in1021.3 mb 0.00 in0.0 mm 0.00 in/hr0.0 mm/hr 0.00 in0.0 mm
05:30 AM 68.2°F20.1°C 65.5°F18.6°C 91% Calm Calm -- 30.17 in1021.7 mb 0.00 in0.0 mm 0.00 in/hr0.0 mm/hr 0.00 in0.0 mm
05:35 AM 68.2°F20.1°C 65.5°F18.6°C 91% Calm Calm 0.7 mph1.1 kmh 30.17 in1021.7 mb 0.00 in0.0 mm 0.00 in/hr0.0 mm/hr 0.00 in0.0 mm
05:40 AM 68.2°F20.1°C 65.5°F18.6°C 91% Calm Calm 0.7 mph1.1 kmh 30.16 in1021.3 mb 0.00 in0.0 mm 0.00 in/hr0.0 mm/hr 0.00 in0.0 mm
05:45 AM 68.2°F20.1°C 65.5°F18.6°C 91% Calm Calm 1.6 mph2.6 kmh 30.16 in1021.3 mb 0.00 in0.0 mm 0.00 in/hr0.0 mm/hr 0.00 in0.0 mm
05:50 AM 68.2°F20.1°C 65.5°F18.6°C 91% Calm Calm 1.6 mph2.6 kmh 30.16 in1021.3 mb 0.00 in0.0 mm 0.00 in/hr0.0 mm/hr 0.00 in0.0 mm
05:55 AM 68.0°F20.0°C 65.3°F18.5°C 91% Calm Calm 0.7 mph1.1 kmh 30.16 in1021.3 mb 0.00 in0.0 mm 0.00 in/hr0.0 mm/hr 0.00 in0.0 mm
06:00 AM 68.2°F20.1°C 65.5°F18.6°C 91% Calm Calm -- 30.16 in1021.3 mb 0.00 in0.0 mm 0.00 in/hr0.0 mm/hr 0.00 in0.0 mm
06:05 AM 68.0°F20.0°C 65.3°F18.5°C 91% Calm Calm 0.7 mph1.1 kmh 30.16 in1021.3 mb 0.00 in0.0 mm 0.00 in/hr0.0 mm/hr 0.00 in0.0 mm
06:10 AM 67.8°F19.9°C 65.4°F18.6°C 92% Calm Calm 0.7 mph1.1 kmh 30.16 in1021.3 mb 0.00 in0.0 mm 0.00 in/hr0.0 mm/hr 0.00 in0.0 mm
06:15 AM 67.6°F19.8°C 65.3°F18.5°C 92% Calm Calm -- 30.16 in1021.3 mb 0.00 in0.0 mm 0.00 in/hr0.0 mm/hr 0.00 in0.0 mm
06:20 AM 67.6°F19.8°C 65.3°F18.5°C 92% Calm Calm 1.6 mph2.6 kmh 30.17 in1021.7 mb 0.00 in0.0 mm 0.00 in/hr0.0 mm/hr 0.00 in0.0 mm
06:25 AM 67.1°F19.5°C 64.7°F18.2°C 92% Calm Calm 1.6 mph2.6 kmh 30.17 in1021.7 mb 0.00 in0.0 mm 0.00 in/hr0.0 mm/hr 0.00 in0.0 mm
06:30 AM 67.3°F19.6°C 64.9°F18.3°C 92% Calm Calm 1.6 mph2.6 kmh 30.17 in1021.7 mb 0.00 in0.0 mm 0.00 in/hr0.0 mm/hr 0.00 in0.0 mm
06:35 AM 67.3°F19.6°C 64.9°F18.3°C 92% Calm Calm 0.7 mph1.1 kmh 30.17 in1021.7 mb 0.00 in0.0 mm 0.00 in/hr0.0 mm/hr 0.00 in0.0 mm
06:40 AM 67.3°F19.6°C 64.9°F18.3°C 92% 0.7 mph S1.1 kmh S 2.2 mph3.5 kmh 30.17 in1021.7 mb 0.00 in0.0 mm 0.00 in/hr0.0 mm/hr 0.00 in0.0 mm
06:45 AM 67.5°F19.7°C 65.4°F18.6°C 93% Calm Calm 2.2 mph3.5 kmh 30.17 in1021.7 mb 0.00 in0.0 mm 0.00 in/hr0.0 mm/hr 0.00 in0.0 mm
06:50 AM 67.5°F19.7°C 65.4°F18.6°C 93% Calm Calm 1.6 mph2.6 kmh 30.18 in1022.0 mb 0.00 in0.0 mm 0.00 in/hr0.0 mm/hr 0.00 in0.0 mm
06:55 AM 67.3°F19.6°C 65.2°F18.4°C 93% Calm Calm 0.7 mph1.1 kmh 30.18 in1022.0 mb 0.00 in0.0 mm 0.00 in/hr0.0 mm/hr 0.00 in0.0 mm
07:00 AM 67.1°F19.5°C 65.0°F18.3°C 93% Calm Calm 0.7 mph1.1 kmh 30.18 in1022.0 mb 0.00 in0.0 mm 0.00 in/hr0.0 mm/hr 0.00 in0.0 mm
07:05 AM 67.5°F19.7°C 65.4°F18.6°C 93% Calm Calm 1.6 mph2.6 kmh 30.19 in1022.4 mb 0.00 in0.0 mm 0.00 in/hr0.0 mm/hr 0.00 in0.0 mm
07:10 AM 67.6°F19.8°C 65.6°F18.7°C 93% Calm Calm 1.6 mph2.6 kmh 30.19 in1022.4 mb 0.00 in0.0 mm 0.00 in/hr0.0 mm/hr 0.00 in0.0 mm
07:15 AM 68.0°F20.0°C 65.6°F18.7°C 92% Calm Calm 0.7 mph1.1 kmh 30.19 in1022.4 mb 0.00 in0.0 mm 0.00 in/hr0.0 mm/hr 0.00 in0.0 mm
07:20 AM 68.7°F20.4°C 66.3°F19.1°C 92% Calm Calm 0.7 mph1.1 kmh 30.19 in1022.4 mb 0.00 in0.0 mm 0.00 in/hr0.0 mm/hr 0.00 in0.0 mm
07:25 AM 69.1°F20.6°C 66.7°F19.3°C 92% Calm Calm 0.7 mph1.1 kmh 30.19 in1022.4 mb 0.00 in0.0 mm 0.00 in/hr0.0 mm/hr 0.00 in0.0 mm
07:30 AM 69.4°F20.8°C 67.4°F19.7°C 93% 0.7 mph W1.1 kmh W 1.6 mph2.6 kmh 30.19 in1022.4 mb 0.00 in0.0 mm 0.00 in/hr0.0 mm/hr 0.00 in0.0 mm
07:35 AM 70.0°F21.1°C 67.6°F19.8°C 92% 0.7 mph W1.1 kmh W 2.2 mph3.5 kmh 30.19 in1022.4 mb 0.00 in0.0 mm 0.00 in/hr0.0 mm/hr 0.00 in0.0 mm
07:40 AM 70.3°F21.3°C 67.9°F19.9°C 92% 0.7 mph W1.1 kmh W 3.1 mph5.0 kmh 30.20 in1022.7 mb 0.00 in0.0 mm 0.00 in/hr0.0 mm/hr 0.00 in0.0 mm
07:45 AM 70.9°F21.6°C 68.5°F20.3°C 92% Calm Calm 3.1 mph5.0 kmh 30.19 in1022.4 mb 0.00 in0.0 mm 0.00 in/hr0.0 mm/hr 0.00 in0.0 mm
07:50 AM 71.1°F21.7°C 68.7°F20.4°C 92% 0.7 mph W1.1 kmh W 2.2 mph3.5 kmh 30.19 in1022.4 mb 0.00 in0.0 mm 0.00 in/hr0.0 mm/hr 0.00 in0.0 mm
07:55 AM 71.4°F21.9°C 69.0°F20.6°C 92% 1.6 mph WSW2.6 kmh WSW 3.1 mph5.0 kmh 30.19 in1022.4 mb 0.00 in0.0 mm 0.00 in/hr0.0 mm/hr 0.00 in0.0 mm
08:00 AM 71.8°F22.1°C 69.0°F20.6°C 91% 0.7 mph W1.1 kmh W 3.1 mph5.0 kmh 30.19 in1022.4 mb 0.00 in0.0 mm 0.00 in/hr0.0 mm/hr 0.00 in0.0 mm
08:05 AM 71.8°F22.1°C 69.0°F20.6°C 91% Calm Calm 3.1 mph5.0 kmh 30.19 in1022.4 mb 0.00 in0.0 mm 0.00 in/hr0.0 mm/hr 0.00 in0.0 mm
08:10 AM 72.7°F22.6°C 69.9°F21.1°C 91% 2.2 mph W3.5 kmh W 3.1 mph5.0 kmh 30.19 in1022.4 mb 0.00 in0.0 mm 0.00 in/hr0.0 mm/hr 0.00 in0.0 mm
08:15 AM 73.2°F22.9°C 70.5°F21.4°C 91% 1.6 mph W2.6 kmh W 3.8 mph6.1 kmh 30.19 in1022.4 mb 0.00 in0.0 mm 0.00 in/hr0.0 mm/hr 0.00 in0.0 mm
08:20 AM 73.6°F23.1°C 71.2°F21.8°C 92% 3.1 mph WNW5.0 kmh WNW 3.8 mph6.1 kmh 30.19 in1022.4 mb 0.00 in0.0 mm 0.00 in/hr0.0 mm/hr 0.00 in0.0 mm
08:25 AM 74.3°F23.5°C 71.9°F22.2°C 92% 0.7 mph WNW1.1 kmh WNW 3.8 mph6.1 kmh 30.19 in1022.4 mb 0.00 in0.0 mm 0.00 in/hr0.0 mm/hr 0.00 in0.0 mm
08:30 AM 74.8°F23.8°C 72.4°F22.4°C 92% 2.2 mph W3.5 kmh W 4.5 mph7.2 kmh 30.19 in1022.4 mb 0.00 in0.0 mm 0.00 in/hr0.0 mm/hr 0.00 in0.0 mm
08:35 AM 75.4°F24.1°C 72.0°F22.2°C 89% 3.1 mph WNW5.0 kmh WNW 4.5 mph7.2 kmh 30.19 in1022.4 mb 0.00 in0.0 mm 0.00 in/hr0.0 mm/hr 0.00 in0.0 mm
08:40 AM 76.1°F24.5°C 72.3°F22.4°C 88% 1.6 mph NW2.6 kmh NW 3.8 mph6.1 kmh 30.19 in1022.4 mb 0.00 in0.0 mm 0.00 in/hr0.0 mm/hr 0.00 in0.0 mm
08:45 AM 76.8°F24.9°C 72.4°F22.4°C 86% 2.2 mph NW3.5 kmh NW 5.4 mph8.7 kmh 30.19 in1022.4 mb 0.00 in0.0 mm 0.00 in/hr0.0 mm/hr 0.00 in0.0 mm
08:50 AM 77.2°F25.1°C 72.0°F22.2°C 84% 3.1 mph NW5.0 kmh NW 6.0 mph9.7 kmh 30.19 in1022.4 mb 0.00 in0.0 mm 0.00 in/hr0.0 mm/hr 0.00 in0.0 mm
08:55 AM 77.5°F25.3°C 71.7°F22.1°C 82% 4.5 mph NW7.2 kmh NW 7.6 mph12.2 kmh 30.19 in1022.4 mb 0.00 in0.0 mm 0.00 in/hr0.0 mm/hr 0.00 in0.0 mm
09:00 AM 77.7°F25.4°C 71.5°F21.9°C 81% 2.2 mph NNW3.5 kmh NNW 7.6 mph12.2 kmh 30.19 in1022.4 mb 0.00 in0.0 mm 0.00 in/hr0.0 mm/hr 0.00 in0.0 mm
09:05 AM 78.3°F25.7°C 72.0°F22.2°C 81% 4.5 mph NW7.2 kmh NW 6.9 mph11.1 kmh 30.19 in1022.4 mb 0.00 in0.0 mm 0.00 in/hr0.0 mm/hr 0.00 in0.0 mm
09:10 AM 78.4°F25.8°C 71.8°F22.1°C 80% 3.8 mph WNW6.1 kmh WNW 6.9 mph11.1 kmh 30.19 in1022.4 mb 0.00 in0.0 mm 0.00 in/hr0.0 mm/hr 0.00 in0.0 mm
09:15 AM 78.8°F26.0°C 71.8°F22.1°C 79% 3.8 mph W6.1 kmh W 6.9 mph11.1 kmh 30.19 in1022.4 mb 0.00 in0.0 mm 0.00 in/hr0.0 mm/hr 0.00 in0.0 mm
09:20 AM 79.3°F26.3°C 71.9°F22.2°C 78% 3.1 mph WNW5.0 kmh WNW 6.9 mph11.1 kmh 30.19 in1022.4 mb 0.00 in0.0 mm 0.00 in/hr0.0 mm/hr 0.00 in0.0 mm
09:25 AM 79.5°F26.4°C 71.7°F22.1°C 77% 1.6 mph NW2.6 kmh NW 6.0 mph9.7 kmh 30.19 in1022.4 mb 0.00 in0.0 mm 0.00 in/hr0.0 mm/hr 0.00 in0.0 mm
09:30 AM 79.7°F26.5°C 71.1°F21.7°C 75% 3.8 mph NNW6.1 kmh NNW 7.6 mph12.2 kmh 30.19 in1022.4 mb 0.00 in0.0 mm 0.00 in/hr0.0 mm/hr 0.00 in0.0 mm
09:35 AM 79.9°F26.6°C 70.9°F21.6°C 74% 5.4 mph NNW8.7 kmh NNW 7.6 mph12.2 kmh 30.19 in1022.4 mb 0.00 in0.0 mm 0.00 in/hr0.0 mm/hr 0.00 in0.0 mm
09:40 AM 79.7°F26.5°C 70.7°F21.5°C 74% 0.7 mph NW1.1 kmh NW 6.9 mph11.1 kmh 30.19 in1022.4 mb 0.00 in0.0 mm 0.00 in/hr0.0 mm/hr 0.00 in0.0 mm
09:45 AM 79.7°F26.5°C 70.7°F21.5°C 74% 3.8 mph NW6.1 kmh NW 7.6 mph12.2 kmh 30.19 in1022.4 mb 0.00 in0.0 mm 0.00 in/hr0.0 mm/hr 0.00 in0.0 mm
09:50 AM 79.3°F26.3°C 69.6°F20.9°C 72% 5.4 mph NNW8.7 kmh NNW 8.3 mph13.4 kmh 30.19 in1022.4 mb 0.00 in0.0 mm 0.00 in/hr0.0 mm/hr 0.00 in0.0 mm
09:55 AM 80.2°F26.8°C 70.8°F21.6°C 73% 4.5 mph NNW7.2 kmh NNW 8.3 mph13.4 kmh 30.19 in1022.4 mb 0.00 in0.0 mm 0.00 in/hr0.0 mm/hr 0.00 in0.0 mm
10:00 AM 80.8°F27.1°C 70.1°F21.2°C 70% 3.8 mph NW6.1 kmh NW 8.3 mph13.4 kmh 30.19 in1022.4 mb 0.00 in0.0 mm 0.00 in/hr0.0 mm/hr 0.00 in0.0 mm
10:05 AM 81.0°F27.2°C 69.5°F20.8°C 68% 4.5 mph NW7.2 kmh NW 8.3 mph13.4 kmh 30.19 in1022.4 mb 0.00 in0.0 mm 0.00 in/hr0.0 mm/hr 0.00 in0.0 mm
10:10 AM 81.3°F27.4°C 69.8°F21.0°C 68% 5.4 mph NW8.7 kmh NW 9.2 mph14.8 kmh 30.19 in1022.4 mb 0.00 in0.0 mm 0.00 in/hr0.0 mm/hr 0.00 in0.0 mm
10:15 AM 82.2°F27.9°C 70.2°F21.2°C 67% 2.2 mph WNW3.5 kmh WNW 9.2 mph14.8 kmh 30.19 in1022.4 mb 0.00 in0.0 mm 0.00 in/hr0.0 mm/hr 0.00 in0.0 mm
10:20 AM 81.9°F27.7°C 69.4°F20.8°C 66% 3.8 mph NW6.1 kmh NW 8.3 mph13.4 kmh 30.19 in1022.4 mb 0.00 in0.0 mm 0.00 in/hr0.0 mm/hr 0.00 in0.0 mm
10:25 AM 81.3°F27.4°C 68.0°F20.0°C 64% 6.9 mph NW11.1 kmh NW 9.8 mph15.8 kmh 30.19 in1022.4 mb 0.01 in0.3 mm 0.12 in/hr3.0 mm/hr 0.01 in0.3 mm
10:30 AM 82.2°F27.9°C 68.4°F20.2°C 63% 2.2 mph NW3.5 kmh NW 10.7 mph17.2 kmh 30.19 in1022.4 mb 0.01 in0.3 mm 0.00 in/hr0.0 mm/hr 0.01 in0.3 mm
10:35 AM 82.2°F27.9°C 68.0°F20.0°C 62% 6.0 mph NW9.7 kmh NW 10.7 mph17.2 kmh 30.19 in1022.4 mb 0.01 in0.3 mm 0.00 in/hr0.0 mm/hr 0.01 in0.3 mm
10:40 AM 81.7°F27.6°C 67.4°F19.7°C 62% 6.0 mph NNW9.7 kmh NNW 11.4 mph18.3 kmh 30.18 in1022.0 mb 0.01 in0.3 mm 0.00 in/hr0.0 mm/hr 0.01 in0.3 mm
10:45 AM 82.4°F28.0°C 68.6°F20.3°C 63% 6.9 mph NW11.1 kmh NW 11.4 mph18.3 kmh 30.19 in1022.4 mb 0.01 in0.3 mm 0.00 in/hr0.0 mm/hr 0.01 in0.3 mm
10:50 AM 83.1°F28.4°C 68.3°F20.2°C 61% 5.4 mph NW8.7 kmh NW 9.8 mph15.8 kmh 30.19 in1022.4 mb 0.01 in0.3 mm 0.00 in/hr0.0 mm/hr 0.01 in0.3 mm
10:55 AM 83.7°F28.7°C 68.8°F20.4°C 61% 5.4 mph W8.7 kmh W 9.8 mph15.8 kmh 30.18 in1022.0 mb 0.01 in0.3 mm 0.00 in/hr0.0 mm/hr 0.01 in0.3 mm
11:00 AM 83.7°F28.7°C 68.4°F20.2°C 60% 6.0 mph W9.7 kmh W 9.8 mph15.8 kmh 30.19 in1022.4 mb 0.01 in0.3 mm 0.00 in/hr0.0 mm/hr 0.01 in0.3 mm
11:05 AM 84.4°F29.1°C 67.5°F19.7°C 57% 6.9 mph WNW11.1 kmh WNW 12.1 mph19.5 kmh 30.18 in1022.0 mb 0.01 in0.3 mm 0.00 in/hr0.0 mm/hr 0.01 in0.3 mm
11:10 AM 84.4°F29.1°C 67.5°F19.7°C 57% 4.5 mph NW7.2 kmh NW 12.1 mph19.5 kmh 30.18 in1022.0 mb 0.01 in0.3 mm 0.00 in/hr0.0 mm/hr 0.01 in0.3 mm
11:15 AM 84.9°F29.4°C 68.6°F20.3°C 58% 4.5 mph NNW7.2 kmh NNW 11.4 mph18.3 kmh 30.18 in1022.0 mb 0.01 in0.3 mm 0.00 in/hr0.0 mm/hr 0.01 in0.3 mm
11:20 AM 85.3°F29.6°C 66.8°F19.3°C 54% 6.9 mph WNW11.1 kmh WNW 9.8 mph15.8 kmh 30.18 in1022.0 mb 0.01 in0.3 mm 0.00 in/hr0.0 mm/hr 0.01 in0.3 mm
11:25 AM 85.8°F29.9°C 67.3°F19.6°C 54% 8.3 mph NW13.4 kmh NW 13.0 mph20.9 kmh 30.18 in1022.0 mb 0.00 in0.0 mm 0.00 in/hr0.0 mm/hr 0.01 in0.3 mm
11:30 AM 85.5°F29.7°C 67.0°F19.4°C 54% 6.0 mph NNW9.7 kmh NNW 13.0 mph20.9 kmh 30.18 in1022.0 mb 0.00 in0.0 mm 0.00 in/hr0.0 mm/hr 0.01 in0.3 mm
11:35 AM 84.4°F29.1°C 67.0°F19.4°C 56% 4.5 mph NW7.2 kmh NW 13.0 mph20.9 kmh 30.18 in1022.0 mb 0.00 in0.0 mm 0.00 in/hr0.0 mm/hr 0.01 in0.3 mm
11:40 AM 84.9°F29.4°C 68.6°F20.3°C 58% 4.5 mph NW7.2 kmh NW 9.2 mph14.8 kmh 30.17 in1021.7 mb 0.00 in0.0 mm 0.00 in/hr0.0 mm/hr 0.01 in0.3 mm
11:45 AM 85.6°F29.8°C 67.7°F19.8°C 55% 5.4 mph NNW8.7 kmh NNW 10.7 mph17.2 kmh 30.17 in1021.7 mb 0.00 in0.0 mm 0.00 in/hr0.0 mm/hr 0.01 in0.3 mm
11:50 AM 86.0°F30.0°C 67.5°F19.7°C 54% 5.4 mph NNW8.7 kmh NNW 10.7 mph17.2 kmh 30.17 in1021.7 mb 0.00 in0.0 mm 0.00 in/hr0.0 mm/hr 0.01 in0.3 mm
11:55 AM 86.2°F30.1°C 67.6°F19.8°C 54% 3.8 mph NW6.1 kmh NW 8.3 mph13.4 kmh 30.17 in1021.7 mb 0.00 in0.0 mm 0.00 in/hr0.0 mm/hr 0.01 in0.3 mm
12:00 PM 86.7°F30.4°C 68.1°F20.1°C 54% 7.6 mph NW12.2 kmh NW 13.0 mph20.9 kmh 30.17 in1021.7 mb 0.00 in0.0 mm 0.00 in/hr0.0 mm/hr 0.01 in0.3 mm
12:05 PM 86.9°F30.5°C 67.8°F19.9°C 53% 3.8 mph NNW6.1 kmh NNW 13.0 mph20.9 kmh 30.17 in1021.7 mb 0.00 in0.0 mm 0.00 in/hr0.0 mm/hr 0.01 in0.3 mm
12:10 PM 86.2°F30.1°C 67.1°F19.5°C 53% 3.8 mph N6.1 kmh N 8.3 mph13.4 kmh 30.16 in1021.3 mb 0.00 in0.0 mm 0.00 in/hr0.0 mm/hr 0.01 in0.3 mm
12:15 PM 86.2°F30.1°C 67.1°F19.5°C 53% 3.1 mph NNW5.0 kmh NNW 9.2 mph14.8 kmh 30.16 in1021.3 mb 0.00 in0.0 mm 0.00 in/hr0.0 mm/hr 0.01 in0.3 mm
12:20 PM 86.9°F30.5°C 67.8°F19.9°C 53% 5.4 mph NW8.7 kmh NW 9.2 mph14.8 kmh 30.16 in1021.3 mb 0.00 in0.0 mm 0.00 in/hr0.0 mm/hr 0.01 in0.3 mm
12:25 PM 87.3°F30.7°C 67.0°F19.4°C 51% 5.4 mph NW8.7 kmh NW 12.1 mph19.5 kmh 30.16 in1021.3 mb 0.00 in0.0 mm 0.00 in/hr0.0 mm/hr 0.01 in0.3 mm
12:30 PM 86.9°F30.5°C 66.7°F19.3°C 51% 7.6 mph NNW12.2 kmh NNW 12.1 mph19.5 kmh 30.16 in1021.3 mb 0.00 in0.0 mm 0.00 in/hr0.0 mm/hr 0.01 in0.3 mm
12:35 PM 86.2°F30.1°C 66.5°F19.2°C 52% 2.2 mph NW3.5 kmh NW 10.7 mph17.2 kmh 30.16 in1021.3 mb 0.00 in0.0 mm 0.00 in/hr0.0 mm/hr 0.01 in0.3 mm
12:40 PM 87.8°F31.0°C 67.5°F19.7°C 51% 7.6 mph NW12.2 kmh NW 10.7 mph17.2 kmh 30.15 in1021.0 mb 0.00 in0.0 mm 0.00 in/hr0.0 mm/hr 0.01 in0.3 mm
12:45 PM 88.3°F31.3°C 67.4°F19.7°C 50% 6.0 mph NNW9.7 kmh NNW 10.7 mph17.2 kmh 30.15 in1021.0 mb 0.00 in0.0 mm 0.00 in/hr0.0 mm/hr 0.01 in0.3 mm
12:50 PM 87.8°F31.0°C 65.7°F18.7°C 48% 4.5 mph NW7.2 kmh NW 13.6 mph21.9 kmh 30.15 in1021.0 mb 0.00 in0.0 mm 0.00 in/hr0.0 mm/hr 0.01 in0.3 mm
12:55 PM 87.8°F31.0°C 66.3°F19.1°C 49% 9.8 mph NW15.8 kmh NW 16.8 mph27.0 kmh 30.15 in1021.0 mb 0.00 in0.0 mm 0.00 in/hr0.0 mm/hr 0.01 in0.3 mm
01:00 PM 88.3°F31.3°C 66.8°F19.3°C 49% 4.5 mph NW7.2 kmh NW 16.8 mph27.0 kmh 30.14 in1020.7 mb 0.00 in0.0 mm 0.00 in/hr0.0 mm/hr 0.01 in0.3 mm
01:05 PM 87.4°F30.8°C 65.4°F18.6°C 48% 6.9 mph NW11.1 kmh NW 16.8 mph27.0 kmh 30.15 in1021.0 mb 0.00 in0.0 mm 0.00 in/hr0.0 mm/hr 0.01 in0.3 mm
01:10 PM 84.0°F28.9°C 68.7°F20.4°C 60% 13.0 mph NW20.9 kmh NW 21.3 mph34.3 kmh 30.16 in1021.3 mb 0.02 in0.5 mm 0.24 in/hr6.1 mm/hr 0.04 in1.0 mm
01:15 PM 80.1°F26.7°C 69.0°F20.6°C 69% 3.8 mph N6.1 kmh N 21.3 mph34.3 kmh 30.16 in1021.3 mb 0.04 in1.0 mm 0.24 in/hr6.1 mm/hr 0.05 in1.3 mm
01:20 PM 79.3°F26.3°C 70.4°F21.3°C 74% 3.1 mph N5.0 kmh N 18.3 mph29.5 kmh 30.14 in1020.7 mb 0.05 in1.3 mm 0.12 in/hr3.0 mm/hr 0.06 in1.5 mm
01:25 PM 80.4°F26.9°C 72.2°F22.3°C 76% 3.1 mph N5.0 kmh N 6.0 mph9.7 kmh 30.14 in1020.7 mb 0.05 in1.3 mm 0.00 in/hr0.0 mm/hr 0.06 in1.5 mm
01:30 PM 81.1°F27.3°C 71.7°F22.1°C 73% 1.6 mph N2.6 kmh N 6.9 mph11.1 kmh 30.14 in1020.7 mb 0.05 in1.3 mm 0.00 in/hr0.0 mm/hr 0.06 in1.5 mm
01:35 PM 81.9°F27.7°C 72.0°F22.2°C 72% 3.1 mph N5.0 kmh N 6.9 mph11.1 kmh 30.14 in1020.7 mb 0.05 in1.3 mm 0.00 in/hr0.0 mm/hr 0.06 in1.5 mm
01:40 PM 82.9°F28.3°C 72.2°F22.3°C 70% 2.2 mph N3.5 kmh N 6.0 mph9.7 kmh 30.14 in1020.7 mb 0.05 in1.3 mm 0.00 in/hr0.0 mm/hr 0.06 in1.5 mm
01:45 PM 83.8°F28.8°C 72.2°F22.3°C 68% 5.4 mph N8.7 kmh N 8.3 mph13.4 kmh 30.14 in1020.7 mb 0.05 in1.3 mm 0.00 in/hr0.0 mm/hr 0.06 in1.5 mm
01:50 PM 84.4°F29.1°C 71.4°F21.9°C 65% 2.2 mph N3.5 kmh N 8.3 mph13.4 kmh 30.14 in1020.7 mb 0.05 in1.3 mm 0.00 in/hr0.0 mm/hr 0.06 in1.5 mm
01:55 PM 85.1°F29.5°C 72.1°F22.3°C 65% 6.9 mph N11.1 kmh N 9.2 mph14.8 kmh 30.13 in1020.3 mb 0.05 in1.3 mm 0.00 in/hr0.0 mm/hr 0.06 in1.5 mm
02:00 PM 85.3°F29.6°C 70.8°F21.6°C 62% 7.6 mph N12.2 kmh N 11.4 mph18.3 kmh 30.13 in1020.3 mb 0.05 in1.3 mm 0.00 in/hr0.0 mm/hr 0.06 in1.5 mm
02:05 PM 85.3°F29.6°C 70.8°F21.6°C 62% 7.6 mph NW12.2 kmh NW 11.4 mph18.3 kmh 30.13 in1020.3 mb 0.05 in1.3 mm 0.00 in/hr0.0 mm/hr 0.06 in1.5 mm
02:10 PM 84.6°F29.2°C 70.2°F21.2°C 62% 6.9 mph NW11.1 kmh NW 11.4 mph18.3 kmh 30.13 in1020.3 mb 0.01 in0.3 mm 0.00 in/hr0.0 mm/hr 0.06 in1.5 mm
02:15 PM 84.2°F29.0°C 69.8°F21.0°C 62% 2.2 mph NNW3.5 kmh NNW 11.4 mph18.3 kmh 30.13 in1020.3 mb 0.00 in0.0 mm 0.00 in/hr0.0 mm/hr 0.06 in1.5 mm
02:20 PM 84.6°F29.2°C 71.1°F21.7°C 64% 3.1 mph NNW5.0 kmh NNW 10.7 mph17.2 kmh 30.13 in1020.3 mb 0.00 in0.0 mm 0.00 in/hr0.0 mm/hr 0.06 in1.5 mm
02:25 PM 85.6°F29.8°C 72.6°F22.6°C 65% 2.2 mph NW3.5 kmh NW 6.0 mph9.7 kmh 30.13 in1020.3 mb 0.00 in0.0 mm 0.00 in/hr0.0 mm/hr 0.06 in1.5 mm
02:30 PM 86.2°F30.1°C 71.7°F22.1°C 62% 1.6 mph NNW2.6 kmh NNW 6.0 mph9.7 kmh 30.13 in1020.3 mb 0.00 in0.0 mm 0.00 in/hr0.0 mm/hr 0.06 in1.5 mm
02:35 PM 86.4°F30.2°C 71.4°F21.9°C 61% 2.2 mph N3.5 kmh N 6.0 mph9.7 kmh 30.12 in1020.0 mb 0.00 in0.0 mm 0.00 in/hr0.0 mm/hr 0.06 in1.5 mm
02:40 PM 86.2°F30.1°C 71.7°F22.1°C 62% 1.6 mph NNW2.6 kmh NNW 6.0 mph9.7 kmh 30.12 in1020.0 mb 0.00 in0.0 mm 0.00 in/hr0.0 mm/hr 0.06 in1.5 mm
02:45 PM 86.4°F30.2°C 71.4°F21.9°C 61% 6.0 mph N9.7 kmh N 7.6 mph12.2 kmh 30.11 in1019.6 mb 0.00 in0.0 mm 0.00 in/hr0.0 mm/hr 0.06 in1.5 mm
02:50 PM 86.4°F30.2°C 68.3°F20.2°C 55% 5.4 mph NNE8.7 kmh NNE 9.2 mph14.8 kmh 30.11 in1019.6 mb 0.00 in0.0 mm 0.00 in/hr0.0 mm/hr 0.06 in1.5 mm
02:55 PM 86.7°F30.4°C 67.0°F19.4°C 52% 4.5 mph N7.2 kmh N 12.1 mph19.5 kmh 30.11 in1019.6 mb 0.00 in0.0 mm 0.00 in/hr0.0 mm/hr 0.06 in1.5 mm
03:00 PM 87.6°F30.9°C 69.0°F20.6°C 54% 6.0 mph N9.7 kmh N 12.1 mph19.5 kmh 30.10 in1019.3 mb 0.00 in0.0 mm 0.00 in/hr0.0 mm/hr 0.06 in1.5 mm
03:05 PM 88.2°F31.2°C 67.2°F19.6°C 50% 9.2 mph N14.8 kmh N 11.4 mph18.3 kmh 30.10 in1019.3 mb 0.00 in0.0 mm 0.00 in/hr0.0 mm/hr 0.06 in1.5 mm
03:10 PM 88.0°F31.1°C 65.9°F18.8°C 48% 6.0 mph N9.7 kmh N 11.4 mph18.3 kmh 30.10 in1019.3 mb 0.00 in0.0 mm 0.00 in/hr0.0 mm/hr 0.06 in1.5 mm
03:15 PM 88.5°F31.4°C 67.6°F19.8°C 50% 4.5 mph N7.2 kmh N 11.4 mph18.3 kmh 30.09 in1019.0 mb 0.00 in0.0 mm 0.00 in/hr0.0 mm/hr 0.06 in1.5 mm
03:20 PM 88.7°F31.5°C 66.6°F19.2°C 48% 6.9 mph N11.1 kmh N 10.7 mph17.2 kmh 30.09 in1019.0 mb 0.00 in0.0 mm 0.00 in/hr0.0 mm/hr 0.06 in1.5 mm
03:25 PM 88.7°F31.5°C 66.6°F19.2°C 48% 8.3 mph NNW13.4 kmh NNW 10.7 mph17.2 kmh 30.09 in1019.0 mb 0.00 in0.0 mm 0.00 in/hr0.0 mm/hr 0.06 in1.5 mm
03:30 PM 88.9°F31.6°C 67.3°F19.6°C 49% 5.4 mph N8.7 kmh N 13.6 mph21.9 kmh 30.08 in1018.6 mb 0.00 in0.0 mm 0.00 in/hr0.0 mm/hr 0.06 in1.5 mm
03:35 PM 89.6°F32.0°C 66.8°F19.3°C 47% 6.0 mph N9.7 kmh N 13.6 mph21.9 kmh 30.08 in1018.6 mb 0.00 in0.0 mm 0.00 in/hr0.0 mm/hr 0.06 in1.5 mm
03:40 PM 89.6°F32.0°C 66.8°F19.3°C 47% 6.9 mph NNW11.1 kmh NNW 11.4 mph18.3 kmh 30.08 in1018.6 mb 0.00 in0.0 mm 0.00 in/hr0.0 mm/hr 0.06 in1.5 mm
03:45 PM 88.9°F31.6°C 67.3°F19.6°C 49% 6.9 mph NNW11.1 kmh NNW 11.4 mph18.3 kmh 30.08 in1018.6 mb 0.00 in0.0 mm 0.00 in/hr0.0 mm/hr 0.06 in1.5 mm
03:50 PM 89.1°F31.7°C 67.5°F19.7°C 49% 6.9 mph NNW11.1 kmh NNW 10.7 mph17.2 kmh 30.07 in1018.3 mb 0.00 in0.0 mm 0.00 in/hr0.0 mm/hr 0.06 in1.5 mm
03:55 PM 88.3°F31.3°C 67.4°F19.7°C 50% 5.4 mph N8.7 kmh N 11.4 mph18.3 kmh 30.07 in1018.3 mb 0.00 in0.0 mm 0.00 in/hr0.0 mm/hr 0.06 in1.5 mm
04:00 PM 87.6°F30.9°C 67.9°F19.9°C 52% 3.1 mph N5.0 kmh N 11.4 mph18.3 kmh 30.07 in1018.3 mb 0.00 in0.0 mm 0.00 in/hr0.0 mm/hr 0.06 in1.5 mm
04:05 PM 87.3°F30.7°C 67.5°F19.7°C 52% 9.8 mph N15.8 kmh N 13.0 mph20.9 kmh 30.06 in1017.9 mb 0.00 in0.0 mm 0.00 in/hr0.0 mm/hr 0.06 in1.5 mm
04:10 PM 87.1°F30.6°C 67.4°F19.7°C 52% 5.4 mph NNW8.7 kmh NNW 13.0 mph20.9 kmh 30.07 in1018.3 mb 0.00 in0.0 mm 0.00 in/hr0.0 mm/hr 0.06 in1.5 mm
04:15 PM 87.4°F30.8°C 68.3°F20.2°C 53% 9.8 mph N15.8 kmh N 13.6 mph21.9 kmh 30.07 in1018.3 mb 0.00 in0.0 mm 0.00 in/hr0.0 mm/hr 0.06 in1.5 mm
04:20 PM 87.1°F30.6°C 67.9°F19.9°C 53% 7.6 mph NE12.2 kmh NE 15.2 mph24.5 kmh 30.06 in1017.9 mb 0.00 in0.0 mm 0.00 in/hr0.0 mm/hr 0.06 in1.5 mm
04:25 PM 86.4°F30.2°C 67.8°F19.9°C 54% 6.9 mph NE11.1 kmh NE 15.2 mph24.5 kmh 30.07 in1018.3 mb 0.00 in0.0 mm 0.00 in/hr0.0 mm/hr 0.06 in1.5 mm
04:30 PM 85.5°F29.7°C 68.0°F20.0°C 56% 4.5 mph NE7.2 kmh NE 13.6 mph21.9 kmh 30.06 in1017.9 mb 0.00 in0.0 mm 0.00 in/hr0.0 mm/hr 0.06 in1.5 mm
04:35 PM 84.7°F29.3°C 68.4°F20.2°C 58% 10.7 mph N17.2 kmh N 13.6 mph21.9 kmh 30.06 in1017.9 mb 0.00 in0.0 mm 0.00 in/hr0.0 mm/hr 0.06 in1.5 mm
04:40 PM 84.2°F29.0°C 67.4°F19.7°C 57% 13.0 mph N20.9 kmh N 19.0 mph30.6 kmh 30.06 in1017.9 mb 0.00 in0.0 mm 0.00 in/hr0.0 mm/hr 0.06 in1.5 mm
04:45 PM 83.7°F28.7°C 67.9°F19.9°C 59% 6.0 mph N9.7 kmh N 19.7 mph31.7 kmh 30.07 in1018.3 mb 0.00 in0.0 mm 0.00 in/hr0.0 mm/hr 0.06 in1.5 mm
04:50 PM 82.9°F28.3°C 67.2°F19.6°C 59% 10.7 mph N17.2 kmh N 19.7 mph31.7 kmh 30.07 in1018.3 mb 0.00 in0.0 mm 0.00 in/hr0.0 mm/hr 0.06 in1.5 mm
04:55 PM 82.4°F28.0°C 66.2°F19.0°C 58% 9.2 mph N14.8 kmh N 14.5 mph23.3 kmh 30.07 in1018.3 mb 0.00 in0.0 mm 0.00 in/hr0.0 mm/hr 0.06 in1.5 mm
05:00 PM 82.0°F27.8°C 66.8°F19.3°C 60% 7.6 mph N12.2 kmh N 13.6 mph21.9 kmh 30.07 in1018.3 mb 0.00 in0.0 mm 0.00 in/hr0.0 mm/hr 0.06 in1.5 mm
05:05 PM 81.7°F27.6°C 66.5°F19.2°C 60% 7.6 mph N12.2 kmh N 14.5 mph23.3 kmh 30.06 in1017.9 mb 0.00 in0.0 mm 0.00 in/hr0.0 mm/hr 0.06 in1.5 mm
05:10 PM 81.5°F27.5°C 66.8°F19.3°C 61% 5.4 mph N8.7 kmh N 14.5 mph23.3 kmh 30.06 in1017.9 mb 0.00 in0.0 mm 0.00 in/hr0.0 mm/hr 0.06 in1.5 mm
05:15 PM 81.5°F27.5°C 66.8°F19.3°C 61% 6.0 mph N9.7 kmh N 11.4 mph18.3 kmh 30.07 in1018.3 mb 0.00 in0.0 mm 0.00 in/hr0.0 mm/hr 0.06 in1.5 mm
05:20 PM 81.5°F27.5°C 67.3°F19.6°C 62% 5.4 mph N8.7 kmh N 12.1 mph19.5 kmh 30.07 in1018.3 mb 0.00 in0.0 mm 0.00 in/hr0.0 mm/hr 0.06 in1.5 mm
05:25 PM 81.5°F27.5°C 67.3°F19.6°C 62% 6.9 mph N11.1 kmh N 12.1 mph19.5 kmh 30.07 in1018.3 mb 0.00 in0.0 mm 0.00 in/hr0.0 mm/hr 0.06 in1.5 mm
05:30 PM 81.5°F27.5°C 67.7°F19.8°C 63% 9.2 mph N14.8 kmh N 12.1 mph19.5 kmh 30.07 in1018.3 mb 0.00 in0.0 mm 0.00 in/hr0.0 mm/hr 0.06 in1.5 mm
05:35 PM 81.5°F27.5°C 67.7°F19.8°C 63% 6.0 mph N9.7 kmh N 12.1 mph19.5 kmh 30.07 in1018.3 mb 0.00 in0.0 mm 0.00 in/hr0.0 mm/hr 0.06 in1.5 mm
05:40 PM 81.9°F27.7°C 67.6°F19.8°C 62% 6.0 mph N9.7 kmh N 13.0 mph20.9 kmh 30.06 in1017.9 mb 0.00 in0.0 mm 0.00 in/hr0.0 mm/hr 0.06 in1.5 mm
05:45 PM 81.9°F27.7°C 67.6°F19.8°C 62% 8.3 mph N13.4 kmh N 13.6 mph21.9 kmh 30.07 in1018.3 mb 0.00 in0.0 mm 0.00 in/hr0.0 mm/hr 0.06 in1.5 mm
05:50 PM 82.0°F27.8°C 67.8°F19.9°C 62% 8.3 mph N13.4 kmh N 13.6 mph21.9 kmh 30.07 in1018.3 mb 0.00 in0.0 mm 0.00 in/hr0.0 mm/hr 0.06 in1.5 mm
05:55 PM 82.0°F27.8°C 67.3°F19.6°C 61% 7.6 mph NNW12.2 kmh NNW 12.1 mph19.5 kmh 30.06 in1017.9 mb 0.00 in0.0 mm 0.00 in/hr0.0 mm/hr 0.06 in1.5 mm
06:00 PM 82.6°F28.1°C 68.3°F20.2°C 62% 7.6 mph N12.2 kmh N 12.1 mph19.5 kmh 30.07 in1018.3 mb 0.00 in0.0 mm 0.00 in/hr0.0 mm/hr 0.06 in1.5 mm
06:05 PM 82.8°F28.2°C 68.0°F20.0°C 61% 5.4 mph N8.7 kmh N 15.9 mph25.6 kmh 30.06 in1017.9 mb 0.00 in0.0 mm 0.00 in/hr0.0 mm/hr 0.06 in1.5 mm
06:10 PM 82.8°F28.2°C 68.5°F20.3°C 62% 8.3 mph N13.4 kmh N 15.9 mph25.6 kmh 30.06 in1017.9 mb 0.00 in0.0 mm 0.00 in/hr0.0 mm/hr 0.06 in1.5 mm
06:15 PM 82.9°F28.3°C 68.2°F20.1°C 61% 6.9 mph N11.1 kmh N 13.6 mph21.9 kmh 30.06 in1017.9 mb 0.00 in0.0 mm 0.00 in/hr0.0 mm/hr 0.06 in1.5 mm
06:20 PM 82.9°F28.3°C 68.6°F20.3°C 62% 5.4 mph N8.7 kmh N 13.6 mph21.9 kmh 30.07 in1018.3 mb 0.00 in0.0 mm 0.00 in/hr0.0 mm/hr 0.06 in1.5 mm
06:25 PM 82.9°F28.3°C 68.6°F20.3°C 62% 11.4 mph N18.3 kmh N 15.2 mph24.5 kmh 30.07 in1018.3 mb 0.00 in0.0 mm 0.00 in/hr0.0 mm/hr 0.06 in1.5 mm
06:30 PM 83.1°F28.4°C 68.8°F20.4°C 62% 9.2 mph N14.8 kmh N 15.9 mph25.6 kmh 30.07 in1018.3 mb 0.00 in0.0 mm 0.00 in/hr0.0 mm/hr 0.06 in1.5 mm
06:35 PM 83.7°F28.7°C 69.3°F20.7°C 62% 8.3 mph N13.4 kmh N 15.9 mph25.6 kmh 30.07 in1018.3 mb 0.00 in0.0 mm 0.00 in/hr0.0 mm/hr 0.06 in1.5 mm
06:40 PM 83.8°F28.8°C 69.5°F20.8°C 62% 9.8 mph N15.8 kmh N 15.2 mph24.5 kmh 30.06 in1017.9 mb 0.00 in0.0 mm 0.00 in/hr0.0 mm/hr 0.06 in1.5 mm
06:45 PM 83.7°F28.7°C 69.3°F20.7°C 62% 6.9 mph N11.1 kmh N 15.2 mph24.5 kmh 30.07 in1018.3 mb 0.00 in0.0 mm 0.00 in/hr0.0 mm/hr 0.06 in1.5 mm
06:50 PM 83.5°F28.6°C 68.7°F20.4°C 61% 6.0 mph N9.7 kmh N 20.6 mph33.2 kmh 30.07 in1018.3 mb 0.00 in0.0 mm 0.00 in/hr0.0 mm/hr 0.06 in1.5 mm
06:55 PM 83.1°F28.4°C 68.8°F20.4°C 62% 9.8 mph N15.8 kmh N 20.6 mph33.2 kmh 30.07 in1018.3 mb 0.00 in0.0 mm 0.00 in/hr0.0 mm/hr 0.06 in1.5 mm
07:00 PM 82.4°F28.0°C 68.1°F20.1°C 62% 9.8 mph N15.8 kmh N 15.9 mph25.6 kmh 30.07 in1018.3 mb 0.00 in0.0 mm 0.00 in/hr0.0 mm/hr 0.06 in1.5 mm
07:05 PM 82.0°F27.8°C 68.3°F20.2°C 63% 5.4 mph N8.7 kmh N 13.6 mph21.9 kmh 30.06 in1017.9 mb 0.00 in0.0 mm 0.00 in/hr0.0 mm/hr 0.06 in1.5 mm
07:10 PM 81.9°F27.7°C 68.5°F20.3°C 64% 9.2 mph N14.8 kmh N 16.8 mph27.0 kmh 30.07 in1018.3 mb 0.00 in0.0 mm 0.00 in/hr0.0 mm/hr 0.06 in1.5 mm
07:15 PM 81.5°F27.5°C 68.7°F20.4°C 65% 9.2 mph N14.8 kmh N 16.8 mph27.0 kmh 30.07 in1018.3 mb 0.00 in0.0 mm 0.00 in/hr0.0 mm/hr 0.06 in1.5 mm
07:20 PM 81.5°F27.5°C 68.7°F20.4°C 65% 6.0 mph N9.7 kmh N 13.0 mph20.9 kmh 30.07 in1018.3 mb 0.00 in0.0 mm 0.00 in/hr0.0 mm/hr 0.06 in1.5 mm
07:25 PM 81.9°F27.7°C 69.4°F20.8°C 66% 6.0 mph N9.7 kmh N 13.0 mph20.9 kmh 30.07 in1018.3 mb 0.00 in0.0 mm 0.00 in/hr0.0 mm/hr 0.06 in1.5 mm
07:30 PM 81.9°F27.7°C 69.4°F20.8°C 66% 6.9 mph N11.1 kmh N 13.0 mph20.9 kmh 30.07 in1018.3 mb 0.00 in0.0 mm 0.00 in/hr0.0 mm/hr 0.06 in1.5 mm
07:35 PM 81.9°F27.7°C 69.4°F20.8°C 66% 6.9 mph N11.1 kmh N 11.4 mph18.3 kmh 30.07 in1018.3 mb 0.00 in0.0 mm 0.00 in/hr0.0 mm/hr 0.06 in1.5 mm
07:40 PM 81.5°F27.5°C 69.1°F20.6°C 66% 4.5 mph N7.2 kmh N 10.7 mph17.2 kmh 30.07 in1018.3 mb 0.00 in0.0 mm 0.00 in/hr0.0 mm/hr 0.06 in1.5 mm
07:45 PM 81.3°F27.4°C 69.4°F20.8°C 67% 6.9 mph NNW11.1 kmh NNW 12.1 mph19.5 kmh 30.07 in1018.3 mb 0.00 in0.0 mm 0.00 in/hr0.0 mm/hr 0.06 in1.5 mm
07:50 PM 81.1°F27.3°C 69.6°F20.9°C 68% 6.9 mph NNW11.1 kmh NNW 12.1 mph19.5 kmh 30.08 in1018.6 mb 0.00 in0.0 mm 0.00 in/hr0.0 mm/hr 0.06 in1.5 mm
07:55 PM 81.0°F27.2°C 69.5°F20.8°C 68% 6.0 mph NNW9.7 kmh NNW 9.8 mph15.8 kmh 30.08 in1018.6 mb 0.00 in0.0 mm 0.00 in/hr0.0 mm/hr 0.06 in1.5 mm
08:00 PM 80.8°F27.1°C 69.3°F20.7°C 68% 6.9 mph NNW11.1 kmh NNW 9.8 mph15.8 kmh 30.08 in1018.6 mb 0.00 in0.0 mm 0.00 in/hr0.0 mm/hr 0.06 in1.5 mm
08:05 PM 80.8°F27.1°C 69.3°F20.7°C 68% 5.4 mph NW8.7 kmh NW 9.8 mph15.8 kmh 30.08 in1018.6 mb 0.00 in0.0 mm 0.00 in/hr0.0 mm/hr 0.06 in1.5 mm
08:10 PM 80.6°F27.0°C 69.5°F20.8°C 69% 3.8 mph NW6.1 kmh NW 8.3 mph13.4 kmh 30.08 in1018.6 mb 0.00 in0.0 mm 0.00 in/hr0.0 mm/hr 0.06 in1.5 mm
08:15 PM 80.4°F26.9°C 69.8°F21.0°C 70% 3.8 mph NW6.1 kmh NW 8.3 mph13.4 kmh 30.08 in1018.6 mb 0.00 in0.0 mm 0.00 in/hr0.0 mm/hr 0.06 in1.5 mm
08:20 PM 80.2°F26.8°C 69.6°F20.9°C 70% 4.5 mph NNW7.2 kmh NNW 6.9 mph11.1 kmh 30.09 in1019.0 mb 0.00 in0.0 mm 0.00 in/hr0.0 mm/hr 0.06 in1.5 mm
08:25 PM 80.1°F26.7°C 69.9°F21.1°C 71% 3.8 mph N6.1 kmh N 6.0 mph9.7 kmh 30.09 in1019.0 mb 0.00 in0.0 mm 0.00 in/hr0.0 mm/hr 0.06 in1.5 mm
08:30 PM 79.9°F26.6°C 69.7°F20.9°C 71% 3.8 mph N6.1 kmh N 6.0 mph9.7 kmh 30.09 in1019.0 mb 0.00 in0.0 mm 0.00 in/hr0.0 mm/hr 0.06 in1.5 mm
08:35 PM 79.9°F26.6°C 69.7°F20.9°C 71% 3.8 mph NNW6.1 kmh NNW 6.9 mph11.1 kmh 30.09 in1019.0 mb 0.00 in0.0 mm 0.00 in/hr0.0 mm/hr 0.06 in1.5 mm
08:40 PM 79.5°F26.4°C 69.7°F20.9°C 72% 3.1 mph N5.0 kmh N 8.3 mph13.4 kmh 30.10 in1019.3 mb 0.00 in0.0 mm 0.00 in/hr0.0 mm/hr 0.06 in1.5 mm
08:45 PM 79.3°F26.3°C 69.6°F20.9°C 72% 4.5 mph N7.2 kmh N 8.3 mph13.4 kmh 30.10 in1019.3 mb 0.00 in0.0 mm 0.00 in/hr0.0 mm/hr 0.06 in1.5 mm
08:50 PM 79.3°F26.3°C 69.6°F20.9°C 72% 4.5 mph NNW7.2 kmh NNW 6.9 mph11.1 kmh 30.10 in1019.3 mb 0.00 in0.0 mm 0.00 in/hr0.0 mm/hr 0.06 in1.5 mm
08:55 PM 79.2°F26.2°C 69.8°F21.0°C 73% 12.1 mph NNW19.5 kmh NNW 19.7 mph31.7 kmh 30.11 in1019.6 mb 0.04 in1.0 mm 0.48 in/hr12.2 mm/hr 0.09 in2.3 mm
09:00 PM 76.3°F24.6°C 69.3°F20.7°C 79% 8.3 mph N13.4 kmh N 21.3 mph34.3 kmh 30.11 in1019.6 mb 0.17 in4.3 mm 0.14 in/hr3.6 mm/hr 0.22 in5.6 mm
09:05 PM 74.5°F23.6°C 68.7°F20.4°C 82% 3.1 mph N5.0 kmh N 21.3 mph34.3 kmh 30.11 in1019.6 mb 0.17 in4.3 mm 0.00 in/hr0.0 mm/hr 0.22 in5.6 mm
09:10 PM 73.4°F23.0°C 68.0°F20.0°C 83% 2.2 mph NNW3.5 kmh NNW 9.8 mph15.8 kmh 30.10 in1019.3 mb 0.17 in4.3 mm 0.00 in/hr0.0 mm/hr 0.22 in5.6 mm
09:15 PM 72.9°F22.7°C 67.1°F19.5°C 82% 0.7 mph N1.1 kmh N 5.4 mph8.7 kmh 30.10 in1019.3 mb 0.17 in4.3 mm 0.00 in/hr0.0 mm/hr 0.22 in5.6 mm
09:20 PM 72.7°F22.6°C 67.3°F19.6°C 83% 2.2 mph N3.5 kmh N 3.8 mph6.1 kmh 30.10 in1019.3 mb 0.17 in4.3 mm 0.00 in/hr0.0 mm/hr 0.22 in5.6 mm
09:25 PM 72.5°F22.5°C 67.1°F19.5°C 83% 1.6 mph NNW2.6 kmh NNW 4.5 mph7.2 kmh 30.10 in1019.3 mb 0.17 in4.3 mm 0.00 in/hr0.0 mm/hr 0.22 in5.6 mm
09:30 PM 72.5°F22.5°C 67.4°F19.7°C 84% 1.6 mph NNW2.6 kmh NNW 4.5 mph7.2 kmh 30.11 in1019.6 mb 0.17 in4.3 mm 0.00 in/hr0.0 mm/hr 0.22 in5.6 mm
09:35 PM 72.5°F22.5°C 67.4°F19.7°C 84% 3.1 mph NNW5.0 kmh NNW 4.5 mph7.2 kmh 30.10 in1019.3 mb 0.17 in4.3 mm 0.00 in/hr0.0 mm/hr 0.22 in5.6 mm
09:40 PM 72.5°F22.5°C 67.4°F19.7°C 84% 3.1 mph NNW5.0 kmh NNW 4.5 mph7.2 kmh 30.11 in1019.6 mb 0.17 in4.3 mm 0.00 in/hr0.0 mm/hr 0.22 in5.6 mm
09:45 PM 72.5°F22.5°C 67.8°F19.9°C 85% 0.7 mph NNW1.1 kmh NNW 4.5 mph7.2 kmh 30.11 in1019.6 mb 0.17 in4.3 mm 0.00 in/hr0.0 mm/hr 0.22 in5.6 mm
09:50 PM 72.5°F22.5°C 67.8°F19.9°C 85% 1.6 mph NNW2.6 kmh NNW 4.5 mph7.2 kmh 30.11 in1019.6 mb 0.17 in4.3 mm 0.00 in/hr0.0 mm/hr 0.22 in5.6 mm
09:55 PM 72.5°F22.5°C 67.8°F19.9°C 85% 1.6 mph NNW2.6 kmh NNW 3.8 mph6.1 kmh 30.11 in1019.6 mb 0.13 in3.3 mm 0.00 in/hr0.0 mm/hr 0.22 in5.6 mm
10:00 PM 72.3°F22.4°C 67.9°F19.9°C 86% 1.6 mph NW2.6 kmh NW 3.8 mph6.1 kmh 30.11 in1019.6 mb 0.00 in0.0 mm 0.00 in/hr0.0 mm/hr 0.22 in5.6 mm
10:05 PM 72.3°F22.4°C 67.9°F19.9°C 86% 3.1 mph NW5.0 kmh NW 4.5 mph7.2 kmh 30.11 in1019.6 mb 0.00 in0.0 mm 0.00 in/hr0.0 mm/hr 0.22 in5.6 mm
10:10 PM 72.3°F22.4°C 67.9°F19.9°C 86% 2.2 mph NW3.5 kmh NW 4.5 mph7.2 kmh 30.11 in1019.6 mb 0.00 in0.0 mm 0.00 in/hr0.0 mm/hr 0.22 in5.6 mm
10:15 PM 72.3°F22.4°C 67.9°F19.9°C 86% 2.2 mph NW3.5 kmh NW 4.5 mph7.2 kmh 30.11 in1019.6 mb 0.00 in0.0 mm 0.00 in/hr0.0 mm/hr 0.22 in5.6 mm
10:20 PM 72.3°F22.4°C 68.3°F20.2°C 87% 1.6 mph NNW2.6 kmh NNW 4.5 mph7.2 kmh 30.11 in1019.6 mb 0.00 in0.0 mm 0.00 in/hr0.0 mm/hr 0.22 in5.6 mm
10:25 PM 72.3°F22.4°C 68.3°F20.2°C 87% 0.7 mph NNW1.1 kmh NNW 3.8 mph6.1 kmh 30.11 in1019.6 mb 0.00 in0.0 mm 0.00 in/hr0.0 mm/hr 0.22 in5.6 mm
10:30 PM 72.1°F22.3°C 68.1°F20.1°C 87% 0.7 mph NNW1.1 kmh NNW 3.1 mph5.0 kmh 30.11 in1019.6 mb 0.00 in0.0 mm 0.00 in/hr0.0 mm/hr 0.22 in5.6 mm
10:35 PM 72.1°F22.3°C 68.1°F20.1°C 87% 0.7 mph NNW1.1 kmh NNW 3.1 mph5.0 kmh 30.11 in1019.6 mb 0.00 in0.0 mm 0.00 in/hr0.0 mm/hr 0.22 in5.6 mm
10:40 PM 72.1°F22.3°C 68.1°F20.1°C 87% 0.7 mph W1.1 kmh W 2.2 mph3.5 kmh 30.11 in1019.6 mb 0.00 in0.0 mm 0.00 in/hr0.0 mm/hr 0.22 in5.6 mm
10:45 PM 72.1°F22.3°C 68.4°F20.2°C 88% 0.7 mph W1.1 kmh W 3.1 mph5.0 kmh 30.11 in1019.6 mb 0.00 in0.0 mm 0.00 in/hr0.0 mm/hr 0.22 in5.6 mm
10:50 PM 72.1°F22.3°C 68.4°F20.2°C 88% 0.7 mph WSW1.1 kmh WSW 3.1 mph5.0 kmh 30.11 in1019.6 mb 0.00 in0.0 mm 0.00 in/hr0.0 mm/hr 0.22 in5.6 mm
10:55 PM 72.1°F22.3°C 68.4°F20.2°C 88% Calm Calm 2.2 mph3.5 kmh 30.11 in1019.6 mb 0.00 in0.0 mm 0.00 in/hr0.0 mm/hr 0.22 in5.6 mm
11:00 PM 72.1°F22.3°C 68.4°F20.2°C 88% Calm Calm 2.2 mph3.5 kmh 30.11 in1019.6 mb 0.00 in0.0 mm 0.00 in/hr0.0 mm/hr 0.22 in5.6 mm
11:05 PM 72.1°F22.3°C 68.4°F20.2°C 88% Calm Calm 1.6 mph2.6 kmh 30.12 in1020.0 mb 0.00 in0.0 mm 0.00 in/hr0.0 mm/hr 0.22 in5.6 mm
11:10 PM 72.1°F22.3°C 68.4°F20.2°C 88% Calm Calm 1.6 mph2.6 kmh 30.11 in1019.6 mb 0.00 in0.0 mm 0.00 in/hr0.0 mm/hr 0.22 in5.6 mm
11:15 PM 72.1°F22.3°C 68.4°F20.2°C 88% Calm Calm 1.6 mph2.6 kmh 30.12 in1020.0 mb 0.00 in0.0 mm 0.00 in/hr0.0 mm/hr 0.22 in5.6 mm
11:20 PM 72.0°F22.2°C 68.2°F20.1°C 88% Calm Calm -- 30.11 in1019.6 mb 0.00 in0.0 mm 0.00 in/hr0.0 mm/hr 0.22 in5.6 mm
11:25 PM 72.0°F22.2°C 68.2°F20.1°C 88% Calm Calm -- 30.11 in1019.6 mb 0.00 in0.0 mm 0.00 in/hr0.0 mm/hr 0.22 in5.6 mm
11:30 PM 71.8°F22.1°C 68.1°F20.1°C 88% Calm Calm -- 30.12 in1020.0 mb 0.00 in0.0 mm 0.00 in/hr0.0 mm/hr 0.22 in5.6 mm
11:35 PM 71.8°F22.1°C 68.1°F20.1°C 88% Calm Calm 1.6 mph2.6 kmh 30.12 in1020.0 mb 0.00 in0.0 mm 0.00 in/hr0.0 mm/hr 0.22 in5.6 mm
11:40 PM 72.0°F22.2°C 68.2°F20.1°C 88% Calm Calm 1.6 mph2.6 kmh 30.12 in1020.0 mb 0.00 in0.0 mm 0.00 in/hr0.0 mm/hr 0.22 in5.6 mm
11:45 PM 72.0°F22.2°C 68.6°F20.3°C 89% Calm Calm 1.6 mph2.6 kmh 30.12 in1020.0 mb 0.00 in0.0 mm 0.00 in/hr0.0 mm/hr 0.22 in5.6 mm
11:50 PM 72.1°F22.3°C 68.8°F20.4°C 89% 0.7 mph NNE1.1 kmh NNE 2.2 mph3.5 kmh 30.12 in1020.0 mb 0.00 in0.0 mm 0.00 in/hr0.0 mm/hr 0.22 in5.6 mm
11:55 PM 72.1°F22.3°C 68.8°F20.4°C 89% Calm Calm 2.2 mph3.5 kmh 30.12 in1020.0 mb 0.00 in0.0 mm 0.00 in/hr0.0 mm/hr 0.22 in5.6 mm